Stazioni METAR vicine

 

LIRQ - Firenze/Peretola, Italy
Distance from station: S 24km
Dati ricevuti: 17/01/2018 02:20
Molto nuvoloso
Molto nuvoloso
 Vento Da O-SO
Vento: O-SO 24 km/h
Temperatura: 14°C
P.to Rugiada: 10°C
Umidità: 77%
Barometro: 1003 hPa
Clouds: Molto nuvoloso
Visibility: 10 km
Cloud details: Poco nuvoloso 610 m
Molto nuvoloso 1219 m
2018/01/17 01:20 LIRQ 170120Z 24013KT 200V270 9999 SCT020 BKN040 14/10 Q1003
LIVC - Cimone Mountain, Italy
Distance from station: O-NO 43km
Dati ricevuti: 17/01/2018 01:55
Nebbia
Nebbia
 Vento Da O-SO
Vento: O-SO 33 km/h, Raffica: 89 km/h
Temperatura: 2°C
Temperatura Vento: -4°C
P.to Rugiada: 0°C
Umidità: 87%
Barometro: 1000 hPa
Meteo: Nebbia
Visibility: 0 km
2018/01/17 00:55 LIVC 170055Z 25018G48KT 0000 FG VV/// 02/00 Q1000 RMK MON INVIS VAL INVIS VIS MIN 0000
 
LIPE - Bologna/Borgo (a, Italy
Distance from station: N-NE 60km
Dati ricevuti: 17/01/2018 02:20
Nebbia, Molto nuvoloso
Nebbia, Molto nuvoloso
 Vento Da E-NE
Vento: E-NE 7 km/h
Temperatura: 3°C
Temperatura Vento: 1°C
P.to Rugiada: 2°C
Umidità: 93%
Barometro: 1001 hPa
Meteo: Nebbia
Clouds: Molto nuvoloso
Visibility: 0 km
Cloud details: Molto nuvoloso 30 m
2018/01/17 01:20 LIPE 170120Z 07004KT 010V120 0100 R12/0600V0700D FG BKN001 03/02 Q1001
LIRP - Pisa (civ/It-Afb, Italy
Distance from station: O-SO 72km
Dati ricevuti: 17/01/2018 01:45
Poco nuvoloso
Poco nuvoloso
 Vento Da O-SO
Vento: O-SO 43 km/h, Raffica: 63 km/h
Temperatura: 14°C
P.to Rugiada: 12°C
Umidità: 88%
Barometro: 1004 hPa
Clouds: Poco nuvoloso
Visibility: 10 km
Cloud details: Poco nuvoloso 610 m
Poco nuvoloso 914 m
2018/01/17 00:45 LIRP 170045Z 24023G34KT 9999 SCT020 SCT030 14/12 Q1004 NOSIG
 
LIPK - Forli (civ/It-Af, Italy
Distance from station: E-NE 78km
Dati ricevuti: 16/01/2018 17:50
NOT Current
Mist, Coperto
Mist, Coperto
 Vento Da varies
Vento: varies 2 km/h
Temperatura: 5°C
P.to Rugiada: 1°C
Umidità: 76%
Barometro: 1006 hPa
Meteo: Mist
Clouds: Coperto
Visibility: 2 km
Cloud details: Coperto 213 m
2018/01/16 16:50 LIPK 161650Z VRB01KT 2000 BR OVC007 05/01 Q1006
LIQW - Sarzana/Luni, Italy
Distance from station: O 94km
Dati ricevuti: 16/01/2018 15:55
NOT Current
Pioviggine, Mist, Molto nuvoloso
Pioviggine, Mist, Molto nuvoloso
 Vento Da E-SE
Vento: E-SE 6 km/h
Temperatura: 12°C
P.to Rugiada: 10°C
Umidità: 88%
Barometro: 1009 hPa
Meteo: Pioviggine, Mist
Clouds: Molto nuvoloso
Visibility: 3 km
Cloud details: Poco nuvoloso 305 m
Molto nuvoloso 610 m
2018/01/16 14:55 LIQW 161455Z 12003KT 3000 -RA BR SCT010 BKN020 12/10 Q1009 RMK OVC VIS MIN 3000 WIND THR18 14003KT YLO
 
LIPC - Cervia (it-Afb), Italy
Distance from station: E-NE 96km
Dati ricevuti: 17/01/2018 01:55
Mist, Molto nuvoloso
Mist, Molto nuvoloso
 Vento Da N-NE
Vento: N-NE 4 km/h
Temperatura: 6°C
P.to Rugiada: 4°C
Umidità: 87%
Barometro: 1002 hPa
Meteo: Mist
Clouds: Molto nuvoloso
Visibility: 1 km
Cloud details: Molto nuvoloso 61 m
2018/01/17 00:55 LIPC 170055Z 03002KT 1000 R11/1500 BR BKN002 06/04 Q1002
LIPF - Ferrara (aut), Italy
Distance from station: N-NE 99km
Dati ricevuti: 16/01/2018 18:55
NOT Current
Poco nuvoloso
Poco nuvoloso
 Vento Da varies
Vento: varies 0 km/h
Temperatura: 3°C
P.to Rugiada: 1°C
Umidità: 87%
Barometro: 1006 hPa
Clouds: Poco nuvoloso
Visibility: 6 km
2018/01/16 17:55 LIPF 161755Z /////KT 6000 NSC 03/01 Q1006